createdAt,value
2019-01-29T00:02:17.537Z,13.13
2019-01-29T00:04:45.980Z,13.20
2019-01-29T00:07:14.416Z,13.50
2019-01-29T00:09:42.880Z,13.07
2019-01-29T00:12:11.303Z,13.70
2019-01-29T00:14:39.760Z,14.73
2019-01-29T00:17:08.229Z,14.13
2019-01-29T00:19:36.657Z,13.80
2019-01-29T00:22:05.689Z,14.63
2019-01-29T00:24:34.152Z,13.97
2019-01-29T00:27:02.625Z,13.53
2019-01-29T00:29:31.043Z,13.67
2019-01-29T00:31:59.468Z,14.03
2019-01-29T00:34:28.092Z,12.97
2019-01-29T00:36:56.513Z,13.60
2019-01-29T00:39:24.948Z,13.67
2019-01-29T00:41:53.411Z,14.50
2019-01-29T00:44:22.090Z,14.20
2019-01-29T00:46:50.545Z,14.87
2019-01-29T00:49:19.004Z,14.83
2019-01-29T00:51:47.430Z,14.27
2019-01-29T00:54:15.888Z,14.20
2019-01-29T00:56:44.336Z,13.87
2019-01-29T00:59:12.846Z,14.23
2019-01-29T01:01:41.300Z,14.20
2019-01-29T01:04:09.995Z,13.43
2019-01-29T01:06:38.592Z,14.80
2019-01-29T01:09:08.078Z,14.50
2019-01-29T01:11:36.487Z,14.87
2019-01-29T01:14:05.348Z,15.73
2019-01-29T01:16:33.924Z,15.37
2019-01-29T01:19:02.416Z,15.13
2019-01-29T01:21:30.876Z,14.97
2019-01-29T01:23:59.336Z,14.30
2019-01-29T01:26:27.776Z,15.47
2019-01-29T01:28:56.239Z,15.13
2019-01-29T01:31:24.693Z,15.77
2019-01-29T01:33:53.161Z,14.40
2019-01-29T01:36:21.656Z,14.50
2019-01-29T01:38:50.137Z,17.30
2019-01-29T01:41:18.638Z,15.17
2019-01-29T01:43:47.075Z,14.20
2019-01-29T01:46:15.536Z,15.67
2019-01-29T01:48:43.961Z,15.27
2019-01-29T01:51:12.428Z,14.20
2019-01-29T01:53:40.876Z,14.67
2019-01-29T01:56:09.333Z,14.37
2019-01-29T01:58:37.832Z,14.07
2019-01-29T02:01:06.352Z,14.13
2019-01-29T02:03:34.777Z,14.73
2019-01-29T02:06:03.300Z,14.43
2019-01-29T02:08:31.753Z,14.93
2019-01-29T02:11:00.193Z,14.70
2019-01-29T02:13:28.644Z,15.10
2019-01-29T02:15:57.113Z,14.70
2019-01-29T02:18:25.568Z,15.03
2019-01-29T02:20:54.018Z,15.10
2019-01-29T02:23:22.449Z,15.33
2019-01-29T02:25:50.926Z,15.33
2019-01-29T02:28:19.443Z,14.73
2019-01-29T02:30:47.904Z,14.63
2019-01-29T02:33:16.336Z,14.63
2019-01-29T02:35:44.825Z,14.37
2019-01-29T02:38:13.265Z,14.10
2019-01-29T02:40:41.700Z,13.60
2019-01-29T02:43:10.183Z,12.93
2019-01-29T02:45:38.652Z,13.37
2019-01-29T02:48:07.253Z,12.63
2019-01-29T02:50:35.678Z,13.00
2019-01-29T02:53:04.198Z,13.17
2019-01-29T02:55:32.696Z,13.00
2019-01-29T02:58:01.157Z,13.63
2019-01-29T03:00:29.981Z,11.93
2019-01-29T03:02:58.516Z,12.20
2019-01-29T03:05:27.020Z,11.30
2019-01-29T03:07:55.476Z,10.83
2019-01-29T03:10:25.872Z,10.13
2019-01-29T03:12:54.812Z,10.67
2019-01-29T03:15:26.575Z,10.33
2019-01-29T03:17:55.005Z,10.30
2019-01-29T03:20:23.633Z,8.90
2019-01-29T03:22:52.164Z,9.03
2019-01-29T03:25:20.759Z,9.37
2019-01-29T03:27:49.219Z,8.90
2019-01-29T03:30:22.463Z,8.53
2019-01-29T03:32:51.053Z,8.20
2019-01-29T03:35:19.636Z,8.33
2019-01-29T03:37:48.659Z,7.97
2019-01-29T03:40:22.570Z,8.13
2019-01-29T03:42:51.053Z,7.67
2019-01-29T03:45:19.936Z,7.70
2019-01-29T03:47:48.369Z,7.27
2019-01-29T03:50:19.301Z,6.50
2019-01-29T03:52:47.822Z,6.80
2019-01-29T03:55:16.396Z,6.73
2019-01-29T03:57:44.881Z,6.30
2019-01-29T04:00:21.375Z,6.50
2019-01-29T04:02:49.781Z,6.57
2019-01-29T04:05:18.214Z,6.57
2019-01-29T04:07:46.957Z,6.93
2019-01-29T04:10:16.535Z,6.37
2019-01-29T04:12:45.915Z,5.87
2019-01-29T04:15:16.254Z,6.83
2019-01-29T04:17:44.963Z,6.47
2019-01-29T04:20:18.579Z,6.03
2019-01-29T04:22:47.004Z,6.10
2019-01-29T04:25:15.602Z,5.83
2019-01-29T04:27:44.014Z,6.00
2019-01-29T04:30:15.790Z,6.37
2019-01-29T04:32:44.285Z,5.53
2019-01-29T04:35:12.867Z,6.40
2019-01-29T04:37:41.521Z,6.67
2019-01-29T04:40:12.497Z,5.57
2019-01-29T04:42:40.934Z,6.93
2019-01-29T04:45:11.594Z,6.17
2019-01-29T04:47:40.372Z,7.17
2019-01-29T04:50:11.497Z,6.90
2019-01-29T04:52:39.994Z,6.40
2019-01-29T04:55:11.276Z,7.40
2019-01-29T04:57:39.713Z,7.20
2019-01-29T05:00:13.864Z,6.50
2019-01-29T05:02:42.366Z,7.40
2019-01-29T05:05:11.540Z,7.37
2019-01-29T05:07:39.952Z,8.30
2019-01-29T05:10:14.397Z,8.37
2019-01-29T05:12:42.832Z,9.77
2019-01-29T05:15:13.608Z,10.20
2019-01-29T05:17:42.017Z,10.00
2019-01-29T05:20:12.802Z,10.67
2019-01-29T05:22:41.219Z,11.77
2019-01-29T05:25:11.164Z,12.33
2019-01-29T05:27:39.701Z,11.00
2019-01-29T05:30:16.377Z,11.17
2019-01-29T05:32:44.899Z,11.07
2019-01-29T05:35:13.463Z,11.03
2019-01-29T05:37:41.944Z,11.95
2019-01-29T05:40:15.236Z,12.00
2019-01-29T05:42:43.707Z,11.83
2019-01-29T05:45:14.479Z,11.27
2019-01-29T05:47:42.984Z,9.10
2019-01-29T05:50:13.845Z,11.60
2019-01-29T05:52:42.287Z,11.10
2019-01-29T05:55:12.436Z,10.67
2019-01-29T05:57:40.907Z,10.08
2019-01-29T06:00:15.856Z,10.30
2019-01-29T06:02:44.380Z,9.87
2019-01-29T06:05:13.237Z,10.17
2019-01-29T06:07:41.663Z,10.00
2019-01-29T06:10:13.061Z,10.37
2019-01-29T06:12:41.772Z,10.03
2019-01-29T06:15:13.095Z,11.03
2019-01-29T06:17:41.595Z,9.23
2019-01-29T06:20:15.564Z,10.00
2019-01-29T06:22:43.989Z,11.73
2019-01-29T06:25:12.575Z,10.70
2019-01-29T06:27:41.116Z,11.47
2019-01-29T06:30:15.220Z,10.43
2019-01-29T06:32:43.810Z,10.83
2019-01-29T06:35:14.352Z,11.13
2019-01-29T06:37:42.853Z,11.40
2019-01-29T06:40:14.003Z,10.40
2019-01-29T06:42:42.441Z,10.27
2019-01-29T06:45:13.612Z,9.87
2019-01-29T06:47:42.084Z,9.27
2019-01-29T06:50:13.645Z,10.57
2019-01-29T06:52:42.044Z,9.27
2019-01-29T06:55:13.549Z,10.13
2019-01-29T06:57:41.973Z,10.57
2019-01-29T07:00:13.820Z,10.60
2019-01-29T07:02:43.184Z,11.67
2019-01-29T07:05:11.996Z,10.93
2019-01-29T07:07:40.475Z,11.40
2019-01-29T07:10:11.954Z,12.20
2019-01-29T07:12:40.384Z,12.40
2019-01-29T07:15:13.888Z,12.63
2019-01-29T07:17:43.265Z,11.97
2019-01-29T07:20:12.529Z,12.47
2019-01-29T07:22:41.129Z,12.43
2019-01-29T07:25:11.647Z,12.20
2019-01-29T07:27:40.065Z,13.30
2019-01-29T07:30:11.900Z,13.50
2019-01-29T07:32:40.301Z,14.03
2019-01-29T07:35:09.069Z,13.67
2019-01-29T07:37:37.468Z,13.60
2019-01-29T07:40:08.654Z,15.00
2019-01-29T07:42:37.152Z,13.80
2019-01-29T07:45:11.303Z,12.83
2019-01-29T07:47:39.732Z,14.00
2019-01-29T07:50:10.192Z,14.07
2019-01-29T07:52:38.752Z,13.40
2019-01-29T07:55:09.708Z,14.27
2019-01-29T07:57:38.140Z,15.27
2019-01-29T08:00:16.583Z,13.63
2019-01-29T08:02:45.007Z,13.97
2019-01-29T08:05:13.481Z,13.50
2019-01-29T08:07:42.063Z,13.83
2019-01-29T08:10:15.177Z,14.10
2019-01-29T08:12:44.325Z,13.67
2019-01-29T08:15:15.809Z,13.30
2019-01-29T08:17:44.250Z,13.63
2019-01-29T08:20:14.509Z,14.07
2019-01-29T08:22:42.908Z,13.70
2019-01-29T08:25:11.572Z,13.87
2019-01-29T08:27:40.065Z,14.53
2019-01-29T08:30:11.472Z,12.77
2019-01-29T08:32:39.965Z,12.63
2019-01-29T08:35:11.214Z,12.70
2019-01-29T08:37:39.652Z,13.17
2019-01-29T08:40:10.860Z,14.33
2019-01-29T08:42:39.340Z,13.57
2019-01-29T08:45:10.916Z,12.50
2019-01-29T08:47:39.397Z,12.80
2019-01-29T08:50:19.911Z,12.03
2019-01-29T08:52:48.361Z,11.93
2019-01-29T08:55:16.864Z,11.60
2019-01-29T08:57:45.360Z,12.00
2019-01-29T09:00:18.480Z,11.17
2019-01-29T09:02:47.971Z,10.57
2019-01-29T09:05:16.980Z,10.27
2019-01-29T09:07:45.443Z,9.83
2019-01-29T09:10:21.484Z,10.07
2019-01-29T09:12:49.944Z,10.10
2019-01-29T09:15:20.210Z,10.63
2019-01-29T09:17:48.777Z,9.63
2019-01-29T09:20:18.832Z,11.87
2019-01-29T09:22:47.336Z,11.53
2019-01-29T09:25:20.979Z,11.67
2019-01-29T09:27:46.343Z,11.50
2019-01-29T09:30:16.393Z,11.80
2019-01-29T09:32:45.068Z,12.17
2019-01-29T09:35:13.598Z,11.23
2019-01-29T09:37:42.028Z,11.57
2019-01-29T09:40:15.910Z,11.60
2019-01-29T09:42:44.456Z,13.23
2019-01-29T09:45:15.696Z,14.47
2019-01-29T09:47:44.122Z,13.37
2019-01-29T09:50:17.744Z,14.87
2019-01-29T09:52:46.215Z,14.77
2019-01-29T09:55:16.696Z,16.27
2019-01-29T09:57:45.101Z,16.67
2019-01-29T10:00:16.702Z,16.90
2019-01-29T10:02:45.129Z,16.80
2019-01-29T10:05:13.855Z,17.80
2019-01-29T10:07:42.291Z,19.20
2019-01-29T10:10:12.666Z,18.63
2019-01-29T10:12:41.146Z,20.00
2019-01-29T10:15:15.723Z,19.33
2019-01-29T10:17:44.296Z,19.33
2019-01-29T10:20:13.712Z,19.00
2019-01-29T10:22:42.193Z,18.07
2019-01-29T10:25:13.153Z,17.03
2019-01-29T10:27:41.556Z,15.63
2019-01-29T10:30:12.628Z,14.80
2019-01-29T10:32:41.038Z,15.80
2019-01-29T10:35:12.696Z,14.03
2019-01-29T10:37:41.368Z,14.63
2019-01-29T10:40:13.117Z,13.03
2019-01-29T10:42:41.611Z,14.40
2019-01-29T10:45:15.918Z,13.63
2019-01-29T10:47:44.480Z,14.27
2019-01-29T10:50:15.893Z,13.30
2019-01-29T10:52:44.448Z,14.60
2019-01-29T10:55:13.014Z,13.13
2019-01-29T10:57:41.441Z,14.50
2019-01-29T11:00:18.421Z,11.70
2019-01-29T11:02:47.085Z,11.57
2019-01-29T11:05:17.828Z,11.23
2019-01-29T11:07:46.372Z,9.70
2019-01-29T11:10:17.048Z,10.13
2019-01-29T11:12:45.587Z,8.23
2019-01-29T11:15:28.933Z,9.07
2019-01-29T11:17:57.497Z,10.63
2019-01-29T11:20:26.049Z,9.70
2019-01-29T11:22:54.592Z,9.80
2019-01-29T11:25:25.452Z,9.93
2019-01-29T11:27:53.872Z,8.93
2019-01-29T11:30:30.141Z,6.70
2019-01-29T11:32:58.895Z,6.87
2019-01-29T11:35:27.561Z,7.50
2019-01-29T11:37:55.991Z,6.77
2019-01-29T11:40:27.105Z,7.40
2019-01-29T11:42:55.495Z,7.10
2019-01-29T11:45:41.659Z,7.57
2019-01-29T11:48:10.085Z,6.92
2019-01-29T11:50:38.500Z,7.30
2019-01-29T11:53:06.997Z,6.87
2019-01-29T11:55:35.438Z,6.67
2019-01-29T11:58:05.066Z,7.10
2019-01-29T12:00:37.065Z,6.63
2019-01-29T12:03:05.706Z,6.17
2019-01-29T12:05:34.468Z,7.63
2019-01-29T12:08:02.937Z,6.40
2019-01-29T12:10:31.485Z,6.87
2019-01-29T12:12:59.868Z,6.57
2019-01-29T12:15:28.432Z,7.00
2019-01-29T12:17:56.832Z,8.37
2019-01-29T12:20:25.315Z,7.50
2019-01-29T12:22:53.789Z,8.90
2019-01-29T12:25:22.210Z,8.90
2019-01-29T12:27:50.611Z,8.70
2019-01-29T12:30:24.256Z,8.67
2019-01-29T12:32:53.008Z,8.83
2019-01-29T12:35:21.431Z,10.00
2019-01-29T12:37:49.852Z,10.10
2019-01-29T12:40:18.349Z,12.03
2019-01-29T12:42:46.763Z,10.07
2019-01-29T12:45:17.412Z,9.97
2019-01-29T12:47:46.180Z,9.83
2019-01-29T12:50:20.352Z,10.57
2019-01-29T12:52:56.425Z,10.03
2019-01-29T12:55:24.832Z,9.70
2019-01-29T12:57:53.231Z,10.27
2019-01-29T13:00:23.133Z,11.57
2019-01-29T13:02:51.562Z,10.77
2019-01-29T13:05:20.405Z,11.37
2019-01-29T13:07:48.835Z,11.73
2019-01-29T13:10:22.212Z,15.57
2019-01-29T13:12:50.854Z,14.63
2019-01-29T13:15:22.496Z,15.20
2019-01-29T13:17:50.896Z,14.70
2019-01-29T13:20:19.307Z,15.47
2019-01-29T13:22:47.736Z,15.83
2019-01-29T13:25:16.503Z,14.77
2019-01-29T13:27:44.936Z,16.20
2019-01-29T13:30:25.152Z,15.37
2019-01-29T13:32:53.565Z,15.60
2019-01-29T13:35:24.112Z,15.77
2019-01-29T13:37:52.612Z,17.60
2019-01-29T13:40:21.122Z,17.80
2019-01-29T13:42:49.532Z,17.10
2019-01-29T13:45:18.884Z,17.60
2019-01-29T13:47:47.345Z,17.40
2019-01-29T13:50:27.498Z,17.23
2019-01-29T13:52:55.896Z,17.20
2019-01-29T13:55:24.393Z,18.23
2019-01-29T13:57:52.965Z,19.63
2019-01-29T14:00:24.581Z,19.90
2019-01-29T14:02:53.229Z,18.50
2019-01-29T14:05:21.724Z,19.37
2019-01-29T14:07:50.140Z,18.33
2019-01-29T14:10:18.640Z,20.37
2019-01-29T14:12:47.283Z,19.83
2019-01-29T14:15:39.268Z,19.53
2019-01-29T14:18:07.929Z,19.53
2019-01-29T14:20:36.425Z,19.77
2019-01-29T14:23:07.357Z,22.00
2019-01-29T14:25:37.491Z,21.67
2019-01-29T14:28:06.264Z,21.30
2019-01-29T14:30:34.750Z,20.97
2019-01-29T14:33:03.807Z,20.20
2019-01-29T14:35:32.226Z,23.27
2019-01-29T14:38:06.223Z,24.73
2019-01-29T14:40:35.083Z,22.27
2019-01-29T14:43:04.020Z,22.07
2019-01-29T14:45:33.390Z,21.30
2019-01-29T14:48:02.126Z,20.53
2019-01-29T14:50:30.656Z,21.87
2019-01-29T14:52:59.092Z,21.07
2019-01-29T14:55:27.640Z,20.53
2019-01-29T14:57:56.133Z,22.07
2019-01-29T15:00:37.503Z,21.07
2019-01-29T15:03:06.253Z,20.70
2019-01-29T15:05:34.684Z,21.97
2019-01-29T15:08:03.151Z,20.27
2019-01-29T15:10:32.295Z,20.80
2019-01-29T15:13:00.871Z,20.37
2019-01-29T15:15:32.471Z,22.53
2019-01-29T15:18:20.334Z,19.90
2019-01-29T15:20:48.800Z,21.10
2019-01-29T15:23:17.372Z,20.13
2019-01-29T15:25:45.868Z,20.27
2019-01-29T15:28:14.280Z,21.20
2019-01-29T15:30:42.706Z,20.17
2019-01-29T15:33:11.180Z,22.07
2019-01-29T15:35:39.613Z,21.53
2019-01-29T15:38:08.016Z,20.77
2019-01-29T15:40:36.436Z,17.73
2019-01-29T15:43:05.104Z,17.90
2019-01-29T15:45:33.509Z,19.53
2019-01-29T15:48:01.947Z,17.87
2019-01-29T15:50:36.613Z,16.40
2019-01-29T15:53:06.051Z,17.70
2019-01-29T15:55:34.636Z,16.53
2019-01-29T15:58:03.508Z,16.47
2019-01-29T16:00:34.124Z,16.17
2019-01-29T16:03:02.572Z,17.47
2019-01-29T16:05:35.720Z,16.80
2019-01-29T16:08:06.180Z,16.57
2019-01-29T16:10:39.971Z,18.37
2019-01-29T16:13:09.104Z,18.07
2019-01-29T16:15:37.972Z,20.23
2019-01-29T16:18:06.637Z,18.83
2019-01-29T16:20:35.060Z,18.33
2019-01-29T16:23:03.535Z,19.97
2019-01-29T16:25:33.608Z,21.13
2019-01-29T16:28:02.014Z,20.20
2019-01-29T16:30:37.904Z,21.77
2019-01-29T16:33:06.676Z,22.17
2019-01-29T16:35:36.223Z,22.73
2019-01-29T16:38:06.085Z,22.13
2019-01-29T16:40:37.253Z,23.33
2019-01-29T16:43:05.796Z,24.33
2019-01-29T16:45:35.650Z,21.53
2019-01-29T16:48:06.524Z,24.57
2019-01-29T16:50:35.012Z,25.17
2019-01-29T16:53:05.287Z,24.20
2019-01-29T16:55:34.281Z,24.27
2019-01-29T16:58:02.938Z,25.80
2019-01-29T17:00:37.344Z,24.47
2019-01-29T17:03:05.892Z,25.40
2019-01-29T17:05:34.489Z,26.23
2019-01-29T17:08:03.156Z,26.77
2019-01-29T17:10:34.855Z,25.97
2019-01-29T17:13:03.527Z,26.43
2019-01-29T17:15:34.236Z,27.13
2019-01-29T17:18:03.017Z,28.53
2019-01-29T17:20:45.369Z,27.90
2019-01-29T17:23:13.865Z,28.93
2019-01-29T17:25:42.268Z,27.43
2019-01-29T17:28:10.767Z,30.57
2019-01-29T17:30:43.777Z,29.23
2019-01-29T17:33:14.681Z,29.63
2019-01-29T17:35:43.160Z,29.97
2019-01-29T17:38:11.648Z,30.63
2019-01-29T17:40:40.374Z,29.97
2019-01-29T17:43:08.882Z,31.10
2019-01-29T17:45:39.830Z,29.70
2019-01-29T17:48:08.320Z,30.10
2019-01-29T17:50:39.462Z,31.20
2019-01-29T17:53:07.953Z,33.47
2019-01-29T17:55:38.146Z,32.83
2019-01-29T17:58:07.220Z,30.43
2019-01-29T18:00:37.408Z,32.10
2019-01-29T18:03:06.577Z,32.47
2019-01-29T18:05:39.104Z,33.67
2019-01-29T18:08:09.407Z,31.53
2019-01-29T18:10:38.008Z,33.07
2019-01-29T18:13:08.656Z,32.90
2019-01-29T18:15:38.708Z,35.30
2019-01-29T18:18:10.048Z,36.70
2019-01-29T18:20:40.678Z,35.00
2019-01-29T18:23:09.102Z,35.87
2019-01-29T18:25:37.604Z,36.37
2019-01-29T18:28:08.704Z,37.30
2019-01-29T18:30:41.507Z,36.90
2019-01-29T18:33:09.992Z,35.87
2019-01-29T18:35:42.488Z,36.23
2019-01-29T18:38:10.932Z,37.40
2019-01-29T18:40:48.176Z,39.70
2019-01-29T18:43:16.596Z,38.87
2019-01-29T18:45:45.096Z,38.93
2019-01-29T18:48:13.509Z,41.03
2019-01-29T18:50:41.923Z,40.07
2019-01-29T18:53:10.352Z,38.57
2019-01-29T18:55:38.759Z,39.60
2019-01-29T18:58:11.987Z,38.40
2019-01-29T19:00:37.326Z,38.10
2019-01-29T19:03:05.826Z,37.03
2019-01-29T19:05:34.231Z,38.67
2019-01-29T19:08:02.902Z,37.33
2019-01-29T19:10:31.396Z,37.90
2019-01-29T19:12:59.844Z,37.33
2019-01-29T19:15:28.316Z,39.70
2019-01-29T19:17:56.836Z,39.33
2019-01-29T19:20:27.052Z,37.43
2019-01-29T19:22:55.564Z,38.20
2019-01-29T19:25:24.116Z,39.40
2019-01-29T19:27:52.617Z,38.00
2019-01-29T19:30:26.360Z,37.23
2019-01-29T19:32:55.096Z,38.20
2019-01-29T19:35:23.576Z,38.90
2019-01-29T19:37:52.012Z,39.70
2019-01-29T19:40:20.733Z,40.43
2019-01-29T19:42:49.148Z,39.23
2019-01-29T19:45:26.507Z,42.30
2019-01-29T19:47:55.668Z,42.10
2019-01-29T19:50:26.813Z,41.27
2019-01-29T19:52:55.652Z,40.37
2019-01-29T19:55:24.624Z,40.93
2019-01-29T19:57:53.123Z,40.83
2019-01-29T20:00:24.460Z,40.93
2019-01-29T20:02:53.020Z,43.17
2019-01-29T20:05:21.692Z,43.67
2019-01-29T20:07:50.174Z,42.57
2019-01-29T20:10:20.640Z,44.63
2019-01-29T20:12:49.359Z,47.90
2019-01-29T20:15:23.050Z,45.57
2019-01-29T20:17:52.620Z,45.73
2019-01-29T20:20:32.641Z,48.70
2019-01-29T20:23:07.570Z,47.83
2019-01-29T20:25:31.299Z,49.77
2019-01-29T20:27:59.784Z,48.63
2019-01-29T20:30:34.032Z,48.07
2019-01-29T20:33:05.170Z,45.13
2019-01-29T20:35:32.990Z,48.27
2019-01-29T20:38:01.396Z,44.53
2019-01-29T20:40:29.879Z,48.77
2019-01-29T20:42:58.424Z,49.50
2019-01-29T20:45:26.855Z,47.07
2019-01-29T20:47:55.297Z,45.70
2019-01-29T20:50:32.302Z,46.23
2019-01-29T20:53:00.714Z,43.77
2019-01-29T20:55:29.288Z,46.43
2019-01-29T20:57:57.727Z,53.50
2019-01-29T21:00:31.141Z,58.33
2019-01-29T21:02:59.689Z,51.67
2019-01-29T21:05:28.267Z,51.57
2019-01-29T21:07:56.685Z,49.47
2019-01-29T21:10:25.264Z,47.13
2019-01-29T21:12:53.701Z,47.80
2019-01-29T21:15:26.748Z,47.67
2019-01-29T21:17:55.630Z,45.77
2019-01-29T21:20:31.888Z,47.27
2019-01-29T21:23:00.553Z,46.87
2019-01-29T21:25:29.123Z,46.57
2019-01-29T21:27:57.612Z,48.00
2019-01-29T21:30:36.871Z,48.20
2019-01-29T21:33:05.371Z,49.47
2019-01-29T21:35:33.857Z,51.93
2019-01-29T21:38:02.297Z,50.77
2019-01-29T21:40:30.723Z,53.60
2019-01-29T21:42:59.164Z,52.13
2019-01-29T21:45:27.717Z,52.03
2019-01-29T21:47:58.393Z,52.67
2019-01-29T21:50:31.960Z,49.03
2019-01-29T21:53:00.476Z,48.10
2019-01-29T21:55:28.972Z,48.80
2019-01-29T21:57:57.952Z,47.50
2019-01-29T22:00:28.729Z,47.47
2019-01-29T22:02:57.231Z,47.33
2019-01-29T22:05:25.817Z,44.23
2019-01-29T22:07:54.280Z,44.97
2019-01-29T22:10:22.759Z,45.53
2019-01-29T22:12:51.382Z,46.70
2019-01-29T22:15:24.296Z,47.47
2019-01-29T22:17:52.724Z,49.40
2019-01-29T22:20:22.688Z,47.37
2019-01-29T22:22:51.293Z,48.30
2019-01-29T22:25:23.680Z,46.73
2019-01-29T22:27:52.116Z,47.10
2019-01-29T22:30:36.868Z,48.60
2019-01-29T22:33:06.071Z,46.47
2019-01-29T22:35:34.476Z,48.93
2019-01-29T22:38:03.134Z,47.10
2019-01-29T22:40:32.000Z,45.07
2019-01-29T22:43:01.466Z,45.43
2019-01-29T22:45:29.967Z,43.33
2019-01-29T22:47:58.405Z,43.63
2019-01-29T22:53:28.068Z,45.00
2019-01-29T22:55:56.473Z,45.77
2019-01-29T22:58:25.313Z,46.57
2019-01-29T23:01:14.695Z,46.37
2019-01-29T23:03:44.174Z,46.57
2019-01-29T23:06:24.955Z,49.13
2019-01-29T23:08:53.464Z,48.27
2019-01-29T23:11:21.953Z,47.93
2019-01-29T23:13:50.384Z,46.40
2019-01-29T23:16:18.889Z,47.27
2019-01-29T23:18:47.305Z,48.67
2019-01-29T23:21:15.760Z,48.07
2019-01-29T23:23:44.172Z,46.63
2019-01-29T23:26:12.585Z,46.37
2019-01-29T23:28:41.160Z,46.47
2019-01-29T23:31:09.676Z,47.17
2019-01-29T23:33:38.092Z,47.27
2019-01-29T23:36:06.657Z,50.03
2019-01-29T23:38:35.090Z,46.23
2019-01-29T23:41:03.584Z,46.53
2019-01-29T23:43:32.004Z,45.93
2019-01-29T23:46:00.462Z,44.20
2019-01-29T23:48:28.878Z,42.37
2019-01-29T23:50:57.280Z,42.73
2019-01-29T23:53:25.784Z,43.33
2019-01-29T23:55:54.214Z,43.17
2019-01-29T23:58:22.649Z,44.40
